sensor_id;sensor_type;location;lat;lon;timestamp;P1;durP1;ratioP1;P2;durP2;ratioP2
1436;SDS011;712;51.026;13.792;2023-03-31T00:00:25;3.33;;;0.80;;
1436;SDS011;712;51.026;13.792;2023-03-31T00:02:51;2.80;;;0.68;;
1436;SDS011;712;51.026;13.792;2023-03-31T00:05:17;5.55;;;0.85;;
1436;SDS011;712;51.026;13.792;2023-03-31T00:07:43;3.63;;;0.80;;
1436;SDS011;712;51.026;13.792;2023-03-31T00:10:10;3.80;;;0.90;;
1436;SDS011;712;51.026;13.792;2023-03-31T00:12:35;6.03;;;1.00;;
1436;SDS011;712;51.026;13.792;2023-03-31T00:15:00;4.40;;;0.70;;
1436;SDS011;712;51.026;13.792;2023-03-31T00:17:26;3.60;;;0.80;;
1436;SDS011;712;51.026;13.792;2023-03-31T00:19:51;3.23;;;0.80;;
1436;SDS011;712;51.026;13.792;2023-03-31T00:22:16;4.40;;;0.70;;
1436;SDS011;712;51.026;13.792;2023-03-31T00:24:43;3.97;;;0.73;;
1436;SDS011;712;51.026;13.792;2023-03-31T00:27:08;3.30;;;0.65;;
1436;SDS011;712;51.026;13.792;2023-03-31T00:29:33;4.10;;;0.90;;
1436;SDS011;712;51.026;13.792;2023-03-31T00:34:25;4.90;;;0.80;;
1436;SDS011;712;51.026;13.792;2023-03-31T00:39:25;4.25;;;0.85;;
1436;SDS011;712;51.026;13.792;2023-03-31T00:41:52;5.53;;;0.90;;
1436;SDS011;712;51.026;13.792;2023-03-31T00:44:19;6.07;;;0.80;;
1436;SDS011;712;51.026;13.792;2023-03-31T00:51:56;4.78;;;0.90;;
1436;SDS011;712;51.026;13.792;2023-03-31T00:54:23;2.88;;;0.65;;
1436;SDS011;712;51.026;13.792;2023-03-31T00:56:50;4.80;;;0.70;;
1436;SDS011;712;51.026;13.792;2023-03-31T00:59:19;6.95;;;0.80;;
1436;SDS011;712;51.026;13.792;2023-03-31T01:01:45;4.57;;;0.90;;
1436;SDS011;712;51.026;13.792;2023-03-31T01:04:11;6.00;;;1.00;;
1436;SDS011;712;51.026;13.792;2023-03-31T01:06:39;4.85;;;0.70;;
1436;SDS011;712;51.026;13.792;2023-03-31T01:09:10;4.57;;;0.80;;
1436;SDS011;712;51.026;13.792;2023-03-31T01:11:36;4.50;;;1.10;;
1436;SDS011;712;51.026;13.792;2023-03-31T01:14:01;6.13;;;0.80;;
1436;SDS011;712;51.026;13.792;2023-03-31T01:18:53;5.18;;;0.80;;
1436;SDS011;712;51.026;13.792;2023-03-31T01:29:17;3.17;;;0.80;;
1436;SDS011;712;51.026;13.792;2023-03-31T01:34:35;5.07;;;1.10;;
1436;SDS011;712;51.026;13.792;2023-03-31T01:37:18;4.38;;;0.77;;
1436;SDS011;712;51.026;13.792;2023-03-31T01:42:24;3.63;;;0.60;;
1436;SDS011;712;51.026;13.792;2023-03-31T01:47:23;5.18;;;0.80;;
1436;SDS011;712;51.026;13.792;2023-03-31T01:49:55;5.53;;;0.98;;
1436;SDS011;712;51.026;13.792;2023-03-31T01:52:30;4.80;;;0.80;;
1436;SDS011;712;51.026;13.792;2023-03-31T01:55:01;4.10;;;0.80;;
1436;SDS011;712;51.026;13.792;2023-03-31T01:57:35;6.90;;;1.08;;
1436;SDS011;712;51.026;13.792;2023-03-31T02:00:11;4.53;;;0.70;;
1436;SDS011;712;51.026;13.792;2023-03-31T02:05:09;4.70;;;0.90;;
1436;SDS011;712;51.026;13.792;2023-03-31T02:07:37;6.43;;;1.10;;
1436;SDS011;712;51.026;13.792;2023-03-31T02:10:04;4.68;;;0.80;;
1436;SDS011;712;51.026;13.792;2023-03-31T02:12:30;3.97;;;0.90;;
1436;SDS011;712;51.026;13.792;2023-03-31T02:14:56;5.07;;;0.98;;
1436;SDS011;712;51.026;13.792;2023-03-31T02:17:23;4.05;;;0.80;;
1436;SDS011;712;51.026;13.792;2023-03-31T02:19:57;5.55;;;0.80;;
1436;SDS011;712;51.026;13.792;2023-03-31T02:22:23;4.20;;;0.88;;
1436;SDS011;712;51.026;13.792;2023-03-31T02:24:49;3.70;;;0.73;;
1436;SDS011;712;51.026;13.792;2023-03-31T02:29:41;6.35;;;0.75;;
1436;SDS011;712;51.026;13.792;2023-03-31T02:32:14;3.13;;;0.70;;
1436;SDS011;712;51.026;13.792;2023-03-31T02:34:44;4.20;;;0.70;;
1436;SDS011;712;51.026;13.792;2023-03-31T02:37:10;6.35;;;1.20;;
1436;SDS011;712;51.026;13.792;2023-03-31T02:39:36;6.22;;;1.10;;
1436;SDS011;712;51.026;13.792;2023-03-31T02:42:02;5.35;;;0.80;;
1436;SDS011;712;51.026;13.792;2023-03-31T02:44:32;5.93;;;1.10;;
1436;SDS011;712;51.026;13.792;2023-03-31T02:46:57;4.30;;;0.95;;
1436;SDS011;712;51.026;13.792;2023-03-31T02:49:22;4.83;;;0.80;;
1436;SDS011;712;51.026;13.792;2023-03-31T03:04:50;7.82;;;1.05;;
1436;SDS011;712;51.026;13.792;2023-03-31T03:07:22;6.07;;;0.80;;
1436;SDS011;712;51.026;13.792;2023-03-31T03:09:57;8.70;;;0.90;;
1436;SDS011;712;51.026;13.792;2023-03-31T03:15:10;4.97;;;0.80;;
1436;SDS011;712;51.026;13.792;2023-03-31T03:17:40;5.30;;;0.93;;
1436;SDS011;712;51.026;13.792;2023-03-31T03:20:07;4.05;;;0.90;;
1436;SDS011;712;51.026;13.792;2023-03-31T03:22:33;7.68;;;1.15;;
1436;SDS011;712;51.026;13.792;2023-03-31T03:25:01;8.73;;;1.60;;
1436;SDS011;712;51.026;13.792;2023-03-31T03:27:26;8.45;;;1.40;;
1436;SDS011;712;51.026;13.792;2023-03-31T03:29:52;8.43;;;1.20;;
1436;SDS011;712;51.026;13.792;2023-03-31T03:32:17;7.50;;;1.20;;
1436;SDS011;712;51.026;13.792;2023-03-31T03:34:42;7.63;;;1.00;;
1436;SDS011;712;51.026;13.792;2023-03-31T03:37:08;7.22;;;1.15;;
1436;SDS011;712;51.026;13.792;2023-03-31T03:39:34;7.47;;;1.70;;
1436;SDS011;712;51.026;13.792;2023-03-31T03:41:59;4.93;;;0.90;;
1436;SDS011;712;51.026;13.792;2023-03-31T03:44:24;6.18;;;0.93;;
1436;SDS011;712;51.026;13.792;2023-03-31T03:46:50;4.93;;;0.90;;
1436;SDS011;712;51.026;13.792;2023-03-31T03:49:15;4.30;;;1.02;;
1436;SDS011;712;51.026;13.792;2023-03-31T03:51:40;6.80;;;0.90;;
1436;SDS011;712;51.026;13.792;2023-03-31T03:54:05;5.05;;;1.20;;
1436;SDS011;712;51.026;13.792;2023-03-31T03:56:30;6.00;;;1.10;;
1436;SDS011;712;51.026;13.792;2023-03-31T03:58:55;5.07;;;0.77;;
1436;SDS011;712;51.026;13.792;2023-03-31T04:01:21;5.45;;;1.27;;
1436;SDS011;712;51.026;13.792;2023-03-31T04:03:46;4.80;;;0.85;;
1436;SDS011;712;51.026;13.792;2023-03-31T04:06:12;4.45;;;1.00;;
1436;SDS011;712;51.026;13.792;2023-03-31T04:08:37;6.13;;;0.90;;
1436;SDS011;712;51.026;13.792;2023-03-31T04:11:02;6.78;;;1.13;;
1436;SDS011;712;51.026;13.792;2023-03-31T04:13:27;9.73;;;1.35;;
1436;SDS011;712;51.026;13.792;2023-03-31T04:15:53;6.27;;;0.90;;
1436;SDS011;712;51.026;13.792;2023-03-31T04:18:18;7.57;;;1.90;;
1436;SDS011;712;51.026;13.792;2023-03-31T04:20:47;13.13;;;3.95;;
1436;SDS011;712;51.026;13.792;2023-03-31T04:23:18;9.02;;;2.17;;
1436;SDS011;712;51.026;13.792;2023-03-31T04:25:44;6.93;;;1.50;;
1436;SDS011;712;51.026;13.792;2023-03-31T04:28:10;4.88;;;1.20;;
1436;SDS011;712;51.026;13.792;2023-03-31T04:30:38;8.45;;;1.80;;
1436;SDS011;712;51.026;13.792;2023-03-31T04:33:03;6.00;;;1.10;;
1436;SDS011;712;51.026;13.792;2023-03-31T04:35:30;8.40;;;1.27;;
1436;SDS011;712;51.026;13.792;2023-03-31T04:38:17;12.73;;;1.00;;
1436;SDS011;712;51.026;13.792;2023-03-31T04:40:43;8.27;;;1.27;;
1436;SDS011;712;51.026;13.792;2023-03-31T04:43:08;5.93;;;1.27;;
1436;SDS011;712;51.026;13.792;2023-03-31T04:45:33;6.23;;;1.27;;
1436;SDS011;712;51.026;13.792;2023-03-31T04:47:58;7.70;;;1.97;;
1436;SDS011;712;51.026;13.792;2023-03-31T04:50:23;10.43;;;1.65;;
1436;SDS011;712;51.026;13.792;2023-03-31T04:52:48;4.80;;;0.93;;
1436;SDS011;712;51.026;13.792;2023-03-31T04:55:13;5.25;;;1.15;;
1436;SDS011;712;51.026;13.792;2023-03-31T04:57:39;4.53;;;1.00;;
1436;SDS011;712;51.026;13.792;2023-03-31T05:00:04;4.30;;;0.80;;
1436;SDS011;712;51.026;13.792;2023-03-31T05:02:33;5.72;;;1.00;;
1436;SDS011;712;51.026;13.792;2023-03-31T05:04:58;6.07;;;1.20;;
1436;SDS011;712;51.026;13.792;2023-03-31T05:07:23;3.80;;;0.75;;
1436;SDS011;712;51.026;13.792;2023-03-31T05:09:48;5.35;;;0.90;;
1436;SDS011;712;51.026;13.792;2023-03-31T05:12:13;6.03;;;1.00;;
1436;SDS011;712;51.026;13.792;2023-03-31T05:14:38;4.45;;;0.85;;
1436;SDS011;712;51.026;13.792;2023-03-31T05:17:03;6.50;;;1.03;;
1436;SDS011;712;51.026;13.792;2023-03-31T05:19:29;5.23;;;1.10;;
1436;SDS011;712;51.026;13.792;2023-03-31T05:21:54;4.03;;;0.80;;
1436;SDS011;712;51.026;13.792;2023-03-31T05:24:19;4.07;;;0.90;;
1436;SDS011;712;51.026;13.792;2023-03-31T05:26:45;4.40;;;1.30;;
1436;SDS011;712;51.026;13.792;2023-03-31T05:29:16;4.68;;;1.00;;
1436;SDS011;712;51.026;13.792;2023-03-31T05:31:42;3.22;;;0.80;;
1436;SDS011;712;51.026;13.792;2023-03-31T05:34:07;7.63;;;1.10;;
1436;SDS011;712;51.026;13.792;2023-03-31T05:36:32;5.10;;;1.13;;
1436;SDS011;712;51.026;13.792;2023-03-31T05:38:57;6.30;;;1.00;;
1436;SDS011;712;51.026;13.792;2023-03-31T05:41:22;6.47;;;1.13;;
1436;SDS011;712;51.026;13.792;2023-03-31T05:43:48;7.75;;;1.33;;
1436;SDS011;712;51.026;13.792;2023-03-31T05:46:13;6.22;;;1.67;;
1436;SDS011;712;51.026;13.792;2023-03-31T05:48:38;5.68;;;1.58;;
1436;SDS011;712;51.026;13.792;2023-03-31T05:51:04;6.43;;;1.35;;
1436;SDS011;712;51.026;13.792;2023-03-31T05:53:29;8.73;;;1.52;;
1436;SDS011;712;51.026;13.792;2023-03-31T05:55:58;6.43;;;1.00;;
1436;SDS011;712;51.026;13.792;2023-03-31T05:58:23;6.82;;;1.20;;
1436;SDS011;712;51.026;13.792;2023-03-31T06:00:49;7.35;;;1.10;;
1436;SDS011;712;51.026;13.792;2023-03-31T06:03:14;5.85;;;1.10;;
1436;SDS011;712;51.026;13.792;2023-03-31T06:05:39;5.28;;;1.00;;
1436;SDS011;712;51.026;13.792;2023-03-31T06:08:11;9.88;;;1.08;;
1436;SDS011;712;51.026;13.792;2023-03-31T06:10:37;6.93;;;1.48;;
1436;SDS011;712;51.026;13.792;2023-03-31T06:13:02;3.85;;;0.80;;
1436;SDS011;712;51.026;13.792;2023-03-31T06:15:27;5.78;;;0.93;;
1436;SDS011;712;51.026;13.792;2023-03-31T06:17:52;5.57;;;0.85;;
1436;SDS011;712;51.026;13.792;2023-03-31T06:20:17;4.90;;;0.90;;
1436;SDS011;712;51.026;13.792;2023-03-31T06:22:42;5.63;;;1.00;;
1436;SDS011;712;51.026;13.792;2023-03-31T06:25:08;5.90;;;1.17;;
1436;SDS011;712;51.026;13.792;2023-03-31T06:27:33;5.57;;;1.47;;
1436;SDS011;712;51.026;13.792;2023-03-31T06:29:58;5.85;;;1.30;;
1436;SDS011;712;51.026;13.792;2023-03-31T06:32:23;6.05;;;1.40;;
1436;SDS011;712;51.026;13.792;2023-03-31T06:34:48;6.30;;;1.10;;
1436;SDS011;712;51.026;13.792;2023-03-31T06:37:13;4.82;;;0.90;;
1436;SDS011;712;51.026;13.792;2023-03-31T06:39:39;6.43;;;1.17;;
1436;SDS011;712;51.026;13.792;2023-03-31T06:42:04;8.30;;;1.70;;
1436;SDS011;712;51.026;13.792;2023-03-31T06:46:56;4.97;;;0.82;;
1436;SDS011;712;51.026;13.792;2023-03-31T06:49:21;4.18;;;0.82;;
1436;SDS011;712;51.026;13.792;2023-03-31T06:51:46;5.77;;;0.90;;
1436;SDS011;712;51.026;13.792;2023-03-31T06:54:11;9.30;;;1.13;;
1436;SDS011;712;51.026;13.792;2023-03-31T06:56:36;8.38;;;1.45;;
1436;SDS011;712;51.026;13.792;2023-03-31T06:59:02;10.05;;;1.42;;
1436;SDS011;712;51.026;13.792;2023-03-31T07:01:27;8.60;;;1.40;;
1436;SDS011;712;51.026;13.792;2023-03-31T07:03:52;7.50;;;1.30;;
1436;SDS011;712;51.026;13.792;2023-03-31T07:06:17;9.05;;;1.38;;
1436;SDS011;712;51.026;13.792;2023-03-31T07:08:42;6.65;;;1.30;;
1436;SDS011;712;51.026;13.792;2023-03-31T07:11:07;5.43;;;1.30;;
1436;SDS011;712;51.026;13.792;2023-03-31T07:13:32;8.27;;;1.20;;
1436;SDS011;712;51.026;13.792;2023-03-31T07:15:58;5.93;;;1.20;;
1436;SDS011;712;51.026;13.792;2023-03-31T07:18:23;6.38;;;1.15;;
1436;SDS011;712;51.026;13.792;2023-03-31T07:20:50;6.38;;;1.50;;
1436;SDS011;712;51.026;13.792;2023-03-31T07:23:15;5.65;;;1.20;;
1436;SDS011;712;51.026;13.792;2023-03-31T07:25:41;7.33;;;1.63;;
1436;SDS011;712;51.026;13.792;2023-03-31T07:28:06;7.20;;;1.30;;
1436;SDS011;712;51.026;13.792;2023-03-31T07:30:31;5.50;;;1.10;;
1436;SDS011;712;51.026;13.792;2023-03-31T07:32:56;7.97;;;1.30;;
1436;SDS011;712;51.026;13.792;2023-03-31T07:35:21;5.10;;;1.10;;
1436;SDS011;712;51.026;13.792;2023-03-31T07:37:47;8.17;;;1.50;;
1436;SDS011;712;51.026;13.792;2023-03-31T07:40:14;7.55;;;1.60;;
1436;SDS011;712;51.026;13.792;2023-03-31T07:42:41;8.45;;;1.30;;
1436;SDS011;712;51.026;13.792;2023-03-31T07:45:07;6.95;;;1.48;;
1436;SDS011;712;51.026;13.792;2023-03-31T07:47:32;5.32;;;1.48;;
1436;SDS011;712;51.026;13.792;2023-03-31T07:49:57;9.52;;;1.55;;
1436;SDS011;712;51.026;13.792;2023-03-31T07:52:23;9.37;;;1.30;;
1436;SDS011;712;51.026;13.792;2023-03-31T07:54:48;8.60;;;1.67;;
1436;SDS011;712;51.026;13.792;2023-03-31T07:57:13;6.95;;;1.48;;
1436;SDS011;712;51.026;13.792;2023-03-31T07:59:40;6.95;;;1.20;;
1436;SDS011;712;51.026;13.792;2023-03-31T08:02:05;6.63;;;1.50;;
1436;SDS011;712;51.026;13.792;2023-03-31T08:04:30;4.70;;;1.13;;
1436;SDS011;712;51.026;13.792;2023-03-31T08:06:56;6.60;;;1.45;;
1436;SDS011;712;51.026;13.792;2023-03-31T08:09:21;5.38;;;1.25;;
1436;SDS011;712;51.026;13.792;2023-03-31T08:11:47;6.32;;;1.30;;
1436;SDS011;712;51.026;13.792;2023-03-31T08:14:12;7.63;;;1.00;;
1436;SDS011;712;51.026;13.792;2023-03-31T08:16:37;6.53;;;1.30;;
1436;SDS011;712;51.026;13.792;2023-03-31T08:19:03;5.63;;;1.15;;
1436;SDS011;712;51.026;13.792;2023-03-31T08:21:28;7.43;;;1.20;;
1436;SDS011;712;51.026;13.792;2023-03-31T08:23:54;7.20;;;1.27;;
1436;SDS011;712;51.026;13.792;2023-03-31T08:26:20;5.43;;;1.00;;
1436;SDS011;712;51.026;13.792;2023-03-31T08:28:48;8.57;;;1.23;;
1436;SDS011;712;51.026;13.792;2023-03-31T08:31:13;6.83;;;1.10;;
1436;SDS011;712;51.026;13.792;2023-03-31T08:33:40;6.22;;;1.27;;
1436;SDS011;712;51.026;13.792;2023-03-31T08:36:06;5.70;;;1.00;;
1436;SDS011;712;51.026;13.792;2023-03-31T08:38:33;7.60;;;1.10;;
1436;SDS011;712;51.026;13.792;2023-03-31T08:40:59;5.60;;;1.02;;
1436;SDS011;712;51.026;13.792;2023-03-31T08:43:26;7.53;;;1.13;;
1436;SDS011;712;51.026;13.792;2023-03-31T08:45:54;8.13;;;1.33;;
1436;SDS011;712;51.026;13.792;2023-03-31T08:48:24;9.60;;;1.40;;
1436;SDS011;712;51.026;13.792;2023-03-31T08:50:52;6.03;;;1.02;;
1436;SDS011;712;51.026;13.792;2023-03-31T08:55:54;5.10;;;1.27;;
1436;SDS011;712;51.026;13.792;2023-03-31T08:58:37;6.20;;;1.27;;
1436;SDS011;712;51.026;13.792;2023-03-31T09:03:30;5.32;;;1.17;;
1436;SDS011;712;51.026;13.792;2023-03-31T09:06:10;6.80;;;1.00;;
1436;SDS011;712;51.026;13.792;2023-03-31T09:08:38;7.57;;;1.20;;
1436;SDS011;712;51.026;13.792;2023-03-31T09:13:40;6.13;;;1.02;;
1436;SDS011;712;51.026;13.792;2023-03-31T09:16:12;5.93;;;1.17;;
1436;SDS011;712;51.026;13.792;2023-03-31T09:18:38;6.15;;;1.00;;
1436;SDS011;712;51.026;13.792;2023-03-31T09:21:16;5.53;;;1.02;;
1436;SDS011;712;51.026;13.792;2023-03-31T09:23:43;4.82;;;0.98;;
1436;SDS011;712;51.026;13.792;2023-03-31T09:26:12;4.85;;;0.95;;
1436;SDS011;712;51.026;13.792;2023-03-31T09:28:42;4.25;;;0.90;;
1436;SDS011;712;51.026;13.792;2023-03-31T09:31:10;5.00;;;0.90;;
1436;SDS011;712;51.026;13.792;2023-03-31T09:33:37;3.60;;;0.85;;
1436;SDS011;712;51.026;13.792;2023-03-31T09:36:07;4.55;;;0.90;;
1436;SDS011;712;51.026;13.792;2023-03-31T09:38:37;4.07;;;0.80;;
1436;SDS011;712;51.026;13.792;2023-03-31T09:41:03;5.07;;;0.90;;
1436;SDS011;712;51.026;13.792;2023-03-31T09:43:29;4.57;;;0.70;;
1436;SDS011;712;51.026;13.792;2023-03-31T09:45:55;4.13;;;0.70;;
1436;SDS011;712;51.026;13.792;2023-03-31T09:48:22;3.97;;;0.83;;
1436;SDS011;712;51.026;13.792;2023-03-31T09:50:57;3.25;;;0.75;;
1436;SDS011;712;51.026;13.792;2023-03-31T09:56:07;3.50;;;0.93;;
1436;SDS011;712;51.026;13.792;2023-03-31T09:58:43;3.63;;;0.90;;
1436;SDS011;712;51.026;13.792;2023-03-31T10:01:09;6.05;;;1.00;;
1436;SDS011;712;51.026;13.792;2023-03-31T10:03:50;7.43;;;1.02;;
1436;SDS011;712;51.026;13.792;2023-03-31T10:06:16;3.97;;;0.70;;
1436;SDS011;712;51.026;13.792;2023-03-31T10:08:58;4.40;;;0.90;;
1436;SDS011;712;51.026;13.792;2023-03-31T10:11:24;4.05;;;1.08;;
1436;SDS011;712;51.026;13.792;2023-03-31T10:16:20;6.65;;;1.17;;
1436;SDS011;712;51.026;13.792;2023-03-31T10:18:46;4.88;;;1.20;;
1436;SDS011;712;51.026;13.792;2023-03-31T10:21:25;4.97;;;1.10;;
1436;SDS011;712;51.026;13.792;2023-03-31T10:23:51;3.47;;;1.10;;
1436;SDS011;712;51.026;13.792;2023-03-31T10:26:18;4.07;;;1.00;;
1436;SDS011;712;51.026;13.792;2023-03-31T10:28:44;4.50;;;1.02;;
1436;SDS011;712;51.026;13.792;2023-03-31T10:31:11;5.95;;;1.00;;
1436;SDS011;712;51.026;13.792;2023-03-31T10:33:40;4.03;;;1.00;;
1436;SDS011;712;51.026;13.792;2023-03-31T10:36:07;4.03;;;1.00;;
1436;SDS011;712;51.026;13.792;2023-03-31T10:38:36;4.03;;;1.02;;
1436;SDS011;712;51.026;13.792;2023-03-31T10:41:04;7.50;;;1.20;;
1436;SDS011;712;51.026;13.792;2023-03-31T10:43:42;6.15;;;1.00;;
1436;SDS011;712;51.026;13.792;2023-03-31T10:46:11;4.45;;;1.20;;
1436;SDS011;712;51.026;13.792;2023-03-31T10:48:38;4.55;;;1.42;;
1436;SDS011;712;51.026;13.792;2023-03-31T10:51:10;5.97;;;1.38;;
1436;SDS011;712;51.026;13.792;2023-03-31T10:53:40;3.83;;;1.35;;
1436;SDS011;712;51.026;13.792;2023-03-31T11:04:01;4.32;;;1.40;;
1436;SDS011;712;51.026;13.792;2023-03-31T11:06:32;4.45;;;1.50;;
1436;SDS011;712;51.026;13.792;2023-03-31T11:11:57;4.55;;;1.58;;
1436;SDS011;712;51.026;13.792;2023-03-31T11:14:28;5.63;;;1.67;;
1436;SDS011;712;51.026;13.792;2023-03-31T11:19:33;4.87;;;1.70;;
1436;SDS011;712;51.026;13.792;2023-03-31T11:22:19;5.60;;;1.55;;
1436;SDS011;712;51.026;13.792;2023-03-31T11:25:03;6.63;;;1.65;;
1436;SDS011;712;51.026;13.792;2023-03-31T11:28:15;3.47;;;1.40;;
1436;SDS011;712;51.026;13.792;2023-03-31T11:33:01;4.55;;;1.40;;
1436;SDS011;712;51.026;13.792;2023-03-31T11:38:39;5.20;;;1.50;;
1436;SDS011;712;51.026;13.792;2023-03-31T11:41:32;4.15;;;1.40;;
1436;SDS011;712;51.026;13.792;2023-03-31T11:43:55;4.82;;;1.40;;
1436;SDS011;712;51.026;13.792;2023-03-31T11:46:22;4.70;;;1.40;;
1436;SDS011;712;51.026;13.792;2023-03-31T11:48:50;4.97;;;1.58;;
1436;SDS011;712;51.026;13.792;2023-03-31T11:51:19;5.93;;;1.48;;
1436;SDS011;712;51.026;13.792;2023-03-31T11:53:45;3.75;;;1.40;;
1436;SDS011;712;51.026;13.792;2023-03-31T11:56:12;4.60;;;1.40;;
1436;SDS011;712;51.026;13.792;2023-03-31T11:58:40;5.25;;;1.52;;
1436;SDS011;712;51.026;13.792;2023-03-31T12:01:08;4.43;;;1.50;;
1436;SDS011;712;51.026;13.792;2023-03-31T12:03:41;6.40;;;1.52;;
1436;SDS011;712;51.026;13.792;2023-03-31T12:06:12;4.13;;;1.30;;
1436;SDS011;712;51.026;13.792;2023-03-31T12:08:44;6.13;;;1.30;;
1436;SDS011;712;51.026;13.792;2023-03-31T12:11:15;3.80;;;1.20;;
1436;SDS011;712;51.026;13.792;2023-03-31T12:19:11;5.20;;;1.30;;
1436;SDS011;712;51.026;13.792;2023-03-31T12:21:28;3.67;;;1.20;;
1436;SDS011;712;51.026;13.792;2023-03-31T12:23:53;4.18;;;1.30;;
1436;SDS011;712;51.026;13.792;2023-03-31T12:26:33;3.90;;;1.35;;
1436;SDS011;712;51.026;13.792;2023-03-31T12:29:09;5.38;;;1.38;;
1436;SDS011;712;51.026;13.792;2023-03-31T12:31:35;4.45;;;1.23;;
1436;SDS011;712;51.026;13.792;2023-03-31T12:34:06;3.90;;;1.20;;
1436;SDS011;712;51.026;13.792;2023-03-31T12:36:40;4.97;;;1.30;;
1436;SDS011;712;51.026;13.792;2023-03-31T12:42:18;5.22;;;1.58;;
1436;SDS011;712;51.026;13.792;2023-03-31T12:53:02;4.75;;;1.60;;
1436;SDS011;712;51.026;13.792;2023-03-31T12:55:36;5.07;;;1.63;;
1436;SDS011;712;51.026;13.792;2023-03-31T13:06:02;4.45;;;1.75;;
1436;SDS011;712;51.026;13.792;2023-03-31T13:13:39;4.28;;;1.55;;
1436;SDS011;712;51.026;13.792;2023-03-31T13:16:04;4.85;;;1.40;;
1436;SDS011;712;51.026;13.792;2023-03-31T13:18:30;4.73;;;1.40;;
1436;SDS011;712;51.026;13.792;2023-03-31T13:20:57;4.05;;;1.40;;
1436;SDS011;712;51.026;13.792;2023-03-31T13:23:23;4.45;;;1.42;;
1436;SDS011;712;51.026;13.792;2023-03-31T13:25:53;6.40;;;1.63;;
1436;SDS011;712;51.026;13.792;2023-03-31T13:33:18;3.75;;;1.65;;
1436;SDS011;712;51.026;13.792;2023-03-31T13:35:45;4.22;;;1.95;;
1436;SDS011;712;51.026;13.792;2023-03-31T13:38:17;4.57;;;1.80;;
1436;SDS011;712;51.026;13.792;2023-03-31T13:43:29;5.15;;;1.70;;
1436;SDS011;712;51.026;13.792;2023-03-31T13:54:22;2.85;;;1.00;;
1436;SDS011;712;51.026;13.792;2023-03-31T14:05:17;4.13;;;0.80;;
1436;SDS011;712;51.026;13.792;2023-03-31T14:07:48;2.92;;;0.80;;
1436;SDS011;712;51.026;13.792;2023-03-31T14:10:20;3.25;;;0.73;;
1436;SDS011;712;51.026;13.792;2023-03-31T14:12:46;2.42;;;0.82;;
1436;SDS011;712;51.026;13.792;2023-03-31T14:15:17;3.30;;;1.02;;
1436;SDS011;712;51.026;13.792;2023-03-31T14:17:42;3.40;;;0.90;;
1436;SDS011;712;51.026;13.792;2023-03-31T14:33:35;3.47;;;1.00;;
1436;SDS011;712;51.026;13.792;2023-03-31T14:36:08;2.03;;;0.82;;
1436;SDS011;712;51.026;13.792;2023-03-31T14:38:35;4.00;;;1.00;;
1436;SDS011;712;51.026;13.792;2023-03-31T14:41:01;3.25;;;0.90;;
1436;SDS011;712;51.026;13.792;2023-03-31T14:43:31;3.05;;;0.93;;
1436;SDS011;712;51.026;13.792;2023-03-31T14:48:26;3.83;;;0.90;;
1436;SDS011;712;51.026;13.792;2023-03-31T14:50:55;2.22;;;0.60;;
1436;SDS011;712;51.026;13.792;2023-03-31T14:53:22;2.95;;;0.82;;
1436;SDS011;712;51.026;13.792;2023-03-31T14:55:48;2.30;;;0.70;;
1436;SDS011;712;51.026;13.792;2023-03-31T14:58:25;2.78;;;0.70;;
1436;SDS011;712;51.026;13.792;2023-03-31T15:00:51;3.65;;;0.80;;
1436;SDS011;712;51.026;13.792;2023-03-31T15:03:17;4.57;;;0.95;;
1436;SDS011;712;51.026;13.792;2023-03-31T15:05:42;2.87;;;0.70;;
1436;SDS011;712;51.026;13.792;2023-03-31T15:08:18;3.55;;;0.70;;
1436;SDS011;712;51.026;13.792;2023-03-31T15:10:47;3.33;;;0.70;;
1436;SDS011;712;51.026;13.792;2023-03-31T15:13:16;4.50;;;0.50;;
1436;SDS011;712;51.026;13.792;2023-03-31T15:15:42;2.88;;;0.70;;
1436;SDS011;712;51.026;13.792;2023-03-31T15:18:11;2.55;;;0.70;;
1436;SDS011;712;51.026;13.792;2023-03-31T15:20:38;4.00;;;0.80;;
1436;SDS011;712;51.026;13.792;2023-03-31T15:23:16;4.15;;;1.00;;
1436;SDS011;712;51.026;13.792;2023-03-31T15:25:42;2.88;;;0.93;;
1436;SDS011;712;51.026;13.792;2023-03-31T15:28:09;3.17;;;0.80;;
1436;SDS011;712;51.026;13.792;2023-03-31T15:30:38;3.05;;;0.80;;
1436;SDS011;712;51.026;13.792;2023-03-31T15:33:05;2.90;;;0.97;;
1436;SDS011;712;51.026;13.792;2023-03-31T15:35:31;3.10;;;0.88;;
1436;SDS011;712;51.026;13.792;2023-03-31T15:40:24;4.20;;;0.80;;
1436;SDS011;712;51.026;13.792;2023-03-31T15:45:43;4.20;;;1.00;;
1436;SDS011;712;51.026;13.792;2023-03-31T15:48:13;3.67;;;0.90;;
1436;SDS011;712;51.026;13.792;2023-03-31T15:50:40;3.25;;;1.02;;
1436;SDS011;712;51.026;13.792;2023-03-31T15:53:18;4.35;;;0.98;;
1436;SDS011;712;51.026;13.792;2023-03-31T15:55:45;3.13;;;0.80;;
1436;SDS011;712;51.026;13.792;2023-03-31T15:58:10;4.45;;;0.95;;
1436;SDS011;712;51.026;13.792;2023-03-31T16:00:40;3.90;;;1.00;;
1436;SDS011;712;51.026;13.792;2023-03-31T16:03:27;5.05;;;1.10;;
1436;SDS011;712;51.026;13.792;2023-03-31T16:05:54;3.72;;;1.10;;
1436;SDS011;712;51.026;13.792;2023-03-31T16:08:41;3.30;;;1.08;;
1436;SDS011;712;51.026;13.792;2023-03-31T16:11:16;5.00;;;1.10;;
1436;SDS011;712;51.026;13.792;2023-03-31T16:13:43;5.10;;;1.17;;
1436;SDS011;712;51.026;13.792;2023-03-31T16:16:11;4.38;;;1.20;;
1436;SDS011;712;51.026;13.792;2023-03-31T16:18:41;4.90;;;1.00;;
1436;SDS011;712;51.026;13.792;2023-03-31T16:21:07;4.30;;;1.10;;
1436;SDS011;712;51.026;13.792;2023-03-31T16:23:34;4.75;;;1.50;;
1436;SDS011;712;51.026;13.792;2023-03-31T16:25:59;4.35;;;1.40;;
1436;SDS011;712;51.026;13.792;2023-03-31T16:28:25;4.82;;;1.27;;
1436;SDS011;712;51.026;13.792;2023-03-31T16:30:52;4.85;;;1.20;;
1436;SDS011;712;51.026;13.792;2023-03-31T16:33:18;4.28;;;1.00;;
1436;SDS011;712;51.026;13.792;2023-03-31T16:35:45;4.03;;;1.30;;
1436;SDS011;712;51.026;13.792;2023-03-31T16:38:15;3.35;;;1.00;;
1436;SDS011;712;51.026;13.792;2023-03-31T16:40:50;3.97;;;0.90;;
1436;SDS011;712;51.026;13.792;2023-03-31T16:43:24;5.68;;;1.70;;
1436;SDS011;712;51.026;13.792;2023-03-31T16:45:59;5.28;;;1.40;;
1436;SDS011;712;51.026;13.792;2023-03-31T16:48:25;5.00;;;1.00;;
1436;SDS011;712;51.026;13.792;2023-03-31T16:50:52;3.10;;;0.80;;
1436;SDS011;712;51.026;13.792;2023-03-31T16:53:19;4.50;;;1.20;;
1436;SDS011;712;51.026;13.792;2023-03-31T16:55:46;4.50;;;1.20;;
1436;SDS011;712;51.026;13.792;2023-03-31T16:58:11;4.53;;;1.03;;
1436;SDS011;712;51.026;13.792;2023-03-31T17:00:36;4.67;;;1.30;;
1436;SDS011;712;51.026;13.792;2023-03-31T17:03:04;5.22;;;1.00;;
1436;SDS011;712;51.026;13.792;2023-03-31T17:05:29;4.72;;;1.00;;
1436;SDS011;712;51.026;13.792;2023-03-31T17:07:58;3.50;;;1.10;;
1436;SDS011;712;51.026;13.792;2023-03-31T17:10:24;4.75;;;1.98;;
1436;SDS011;712;51.026;13.792;2023-03-31T17:12:49;4.13;;;1.00;;
1436;SDS011;712;51.026;13.792;2023-03-31T17:15:14;4.65;;;1.00;;
1436;SDS011;712;51.026;13.792;2023-03-31T17:17:40;5.35;;;1.10;;
1436;SDS011;712;51.026;13.792;2023-03-31T17:20:05;3.93;;;1.17;;
1436;SDS011;712;51.026;13.792;2023-03-31T17:22:31;6.43;;;1.50;;
1436;SDS011;712;51.026;13.792;2023-03-31T17:24:56;4.85;;;1.13;;
1436;SDS011;712;51.026;13.792;2023-03-31T17:27:23;5.15;;;1.20;;
1436;SDS011;712;51.026;13.792;2023-03-31T17:29:48;10.85;;;1.70;;
1436;SDS011;712;51.026;13.792;2023-03-31T17:32:13;6.45;;;1.30;;
1436;SDS011;712;51.026;13.792;2023-03-31T17:34:39;4.95;;;1.52;;
1436;SDS011;712;51.026;13.792;2023-03-31T17:37:05;4.57;;;1.20;;
1436;SDS011;712;51.026;13.792;2023-03-31T17:39:30;6.10;;;1.70;;
1436;SDS011;712;51.026;13.792;2023-03-31T17:41:55;4.10;;;1.30;;
1436;SDS011;712;51.026;13.792;2023-03-31T17:44:21;4.20;;;1.10;;
1436;SDS011;712;51.026;13.792;2023-03-31T17:46:46;3.83;;;1.00;;
1436;SDS011;712;51.026;13.792;2023-03-31T17:49:12;3.78;;;0.95;;
1436;SDS011;712;51.026;13.792;2023-03-31T17:51:37;4.68;;;1.20;;
1436;SDS011;712;51.026;13.792;2023-03-31T17:54:02;3.63;;;1.10;;
1436;SDS011;712;51.026;13.792;2023-03-31T17:56:27;6.72;;;1.35;;